createdAt,value
2023-01-13T00:00:09.219Z,8.49
2023-01-13T00:02:43.235Z,8.47
2023-01-13T00:05:16.355Z,8.42
2023-01-13T00:07:49.715Z,8.52
2023-01-13T00:10:22.344Z,8.31
2023-01-13T00:12:55.092Z,8.37
2023-01-13T00:15:31.210Z,8.34
2023-01-13T00:18:05.811Z,8.27
2023-01-13T00:20:40.650Z,8.29
2023-01-13T00:23:13.407Z,8.25
2023-01-13T00:25:48.524Z,8.36
2023-01-13T00:28:28.932Z,8.19
2023-01-13T00:31:07.300Z,8.15
2023-01-13T00:33:41.347Z,8.07
2023-01-13T00:36:16.299Z,8.02
2023-01-13T00:38:49.271Z,8.07
2023-01-13T00:41:25.271Z,8.03
2023-01-13T00:43:59.727Z,8.01
2023-01-13T00:46:32.897Z,7.95
2023-01-13T00:49:09.091Z,7.92
2023-01-13T00:51:45.710Z,7.97
2023-01-13T00:54:18.872Z,7.93
2023-01-13T00:56:51.455Z,7.99
2023-01-13T00:59:26.703Z,7.83
2023-01-13T01:02:01.609Z,7.92
2023-01-13T01:04:36.389Z,7.84
2023-01-13T01:07:08.998Z,7.94
2023-01-13T01:09:44.789Z,8.09
2023-01-13T01:12:18.139Z,7.91
2023-01-13T01:14:52.777Z,7.95
2023-01-13T01:17:30.196Z,7.99
2023-01-13T01:20:10.504Z,8.04
2023-01-13T01:22:46.030Z,8.19
2023-01-13T01:25:35.356Z,8.24
2023-01-13T01:28:08.838Z,8.32
2023-01-13T01:30:41.488Z,8.06
2023-01-13T01:33:18.281Z,8.26
2023-01-13T01:36:00.592Z,8.13
2023-01-13T01:38:35.795Z,8.07
2023-01-13T01:41:23.860Z,7.97
2023-01-13T01:44:43.636Z,8.11
2023-01-13T01:47:19.409Z,8.09
2023-01-13T01:49:52.811Z,7.86
2023-01-13T01:52:40.215Z,7.84
2023-01-13T01:55:22.467Z,7.93
2023-01-13T01:58:09.396Z,7.91
2023-01-13T02:00:42.158Z,7.88
2023-01-13T02:03:17.321Z,7.70
2023-01-13T02:05:51.304Z,7.71
2023-01-13T02:08:25.244Z,7.79
2023-01-13T02:10:58.242Z,7.68
2023-01-13T02:13:30.974Z,7.59
2023-01-13T02:16:23.291Z,7.59
2023-01-13T02:19:24.669Z,7.64
2023-01-13T02:22:35.372Z,7.66
2023-01-13T02:25:32.894Z,7.61
2023-01-13T02:28:25.668Z,7.67
2023-01-13T02:31:29.200Z,7.50
2023-01-13T02:34:23.073Z,7.47
2023-01-13T02:37:28.595Z,7.40
2023-01-13T02:40:08.423Z,7.38
2023-01-13T02:43:13.661Z,7.57
2023-01-13T02:45:57.805Z,7.54
2023-01-13T02:48:32.417Z,7.58
2023-01-13T02:51:13.803Z,7.62
2023-01-13T02:54:25.291Z,7.55
2023-01-13T02:57:01.100Z,7.72
2023-01-13T02:59:36.857Z,7.62
2023-01-13T03:02:16.375Z,7.73
2023-01-13T03:04:55.182Z,7.71
2023-01-13T03:08:15.743Z,7.75
2023-01-13T03:11:05.593Z,7.70
2023-01-13T03:14:15.182Z,7.90
2023-01-13T03:17:13.041Z,7.92
2023-01-13T03:20:17.132Z,7.94
2023-01-13T03:23:22.138Z,7.94
2023-01-13T03:26:08.354Z,7.94
2023-01-13T03:28:52.412Z,8.03
2023-01-13T03:31:34.300Z,8.23
2023-01-13T03:34:16.025Z,8.14
2023-01-13T03:36:55.436Z,8.11
2023-01-13T03:39:36.442Z,8.09
2023-01-13T03:42:17.633Z,8.16
2023-01-13T03:45:05.140Z,8.19
2023-01-13T03:47:57.348Z,8.15
2023-01-13T03:50:41.677Z,8.09
2023-01-13T03:53:23.118Z,7.99
2023-01-13T03:56:09.848Z,7.96
2023-01-13T03:58:49.281Z,7.94
2023-01-13T04:01:35.313Z,7.92
2023-01-13T04:04:18.190Z,7.79
2023-01-13T04:07:26.983Z,7.85
2023-01-13T04:10:05.237Z,7.75
2023-01-13T04:13:06.837Z,7.76
2023-01-13T04:15:44.065Z,7.57
2023-01-13T04:18:22.795Z,7.44
2023-01-13T04:21:00.310Z,7.47
2023-01-13T04:23:33.321Z,7.43
2023-01-13T04:26:06.053Z,7.31
2023-01-13T04:28:40.736Z,7.32
2023-01-13T04:31:15.979Z,7.48
2023-01-13T04:33:48.697Z,7.44
2023-01-13T04:36:25.133Z,7.56
2023-01-13T04:38:57.757Z,7.56
2023-01-13T04:41:53.300Z,7.64
2023-01-13T04:44:27.267Z,7.63
2023-01-13T04:46:59.960Z,7.61
2023-01-13T04:49:33.368Z,7.61
2023-01-13T06:39:27.506Z,6.34
2023-01-13T06:42:18.537Z,6.44
2023-01-13T06:44:51.282Z,6.56
2023-01-13T06:47:23.945Z,6.58
2023-01-13T06:49:56.531Z,6.66
2023-01-13T06:52:31.733Z,6.81
2023-01-13T06:55:04.943Z,6.82
2023-01-13T06:57:56.146Z,6.94
2023-01-13T07:00:28.890Z,6.92
2023-01-13T07:03:08.944Z,6.97
2023-01-13T07:05:50.450Z,6.92
2023-01-13T07:08:24.493Z,6.89
2023-01-13T07:10:57.131Z,7.03
2023-01-13T07:13:48.500Z,6.93
2023-01-13T07:16:21.153Z,7.03
2023-01-13T07:18:54.052Z,6.87
2023-01-13T07:21:26.635Z,6.94
2023-01-13T07:23:59.182Z,6.77
2023-01-13T07:26:31.812Z,6.79
2023-01-13T07:29:04.282Z,6.79
2023-01-13T07:31:37.419Z,6.70
2023-01-13T07:34:10.132Z,6.68
2023-01-13T07:36:42.770Z,6.61
2023-01-13T07:39:15.441Z,6.69
2023-01-13T07:42:06.790Z,6.71
2023-01-13T07:44:39.440Z,6.65
2023-01-13T07:47:12.183Z,6.65
2023-01-13T07:49:44.727Z,6.74
2023-01-13T07:52:17.193Z,6.60
2023-01-13T07:54:50.241Z,6.68
2023-01-13T07:57:22.830Z,6.60
2023-01-13T07:59:55.583Z,6.71
2023-01-13T08:02:28.213Z,6.65
2023-01-13T08:05:00.910Z,6.55
2023-01-13T08:07:33.474Z,6.63
2023-01-13T08:10:07.349Z,6.55
2023-01-13T08:12:58.362Z,6.65
2023-01-13T08:15:34.666Z,6.56
2023-01-13T08:18:07.185Z,6.60
2023-01-13T08:20:39.858Z,6.56
2023-01-13T08:23:12.560Z,6.53
2023-01-13T08:25:45.702Z,6.53
2023-01-13T08:28:18.518Z,6.60
2023-01-13T08:30:52.996Z,6.50
2023-01-13T08:33:25.576Z,6.65
2023-01-13T08:35:58.956Z,6.64
2023-01-13T08:38:32.772Z,6.63
2023-01-13T08:41:15.016Z,6.67
2023-01-13T08:43:47.573Z,6.68
2023-01-13T08:46:20.167Z,6.86
2023-01-13T08:48:52.812Z,6.90
2023-01-13T08:51:25.344Z,7.09
2023-01-13T08:53:57.869Z,7.21
2023-01-13T08:56:34.150Z,7.29
2023-01-13T08:59:14.840Z,7.28
2023-01-13T09:01:47.473Z,7.40
2023-01-13T09:04:23.876Z,7.39
2023-01-13T09:06:56.669Z,7.45
2023-01-13T09:09:29.181Z,7.29
2023-01-13T09:12:20.768Z,7.42
2023-01-13T09:14:53.224Z,7.45
2023-01-13T09:17:25.882Z,7.51
2023-01-13T09:19:58.474Z,7.66
2023-01-13T09:22:31.250Z,7.60
2023-01-13T09:25:04.604Z,7.61
2023-01-13T09:27:37.110Z,7.75
2023-01-13T09:30:10.730Z,7.80
2023-01-13T09:32:43.281Z,7.87
2023-01-13T09:35:17.381Z,7.94
2023-01-13T09:37:49.968Z,8.01
2023-01-13T09:40:22.825Z,8.02
2023-01-13T09:43:25.323Z,7.94
2023-01-13T09:46:36.190Z,8.00
2023-01-13T09:49:23.874Z,8.05
2023-01-13T09:52:20.911Z,7.93
2023-01-13T09:55:06.249Z,7.97
2023-01-13T09:57:39.902Z,7.90
2023-01-13T10:00:23.083Z,7.88
2023-01-13T10:03:30.341Z,8.00
2023-01-13T10:06:21.387Z,8.00
2023-01-13T10:08:54.190Z,8.03
2023-01-13T10:11:55.654Z,8.09
2023-01-13T10:14:42.932Z,8.10
2023-01-13T10:17:42.955Z,8.38
2023-01-13T10:20:29.091Z,8.64
2023-01-13T10:23:40.615Z,8.59
2023-01-13T10:26:44.615Z,8.67
2023-01-13T10:29:25.259Z,8.52
2023-01-13T10:32:00.732Z,8.25
2023-01-13T10:34:57.380Z,8.17
2023-01-13T10:37:29.891Z,7.91
2023-01-13T10:40:04.158Z,7.89
2023-01-13T10:42:36.901Z,7.67
2023-01-13T10:45:25.173Z,7.57
2023-01-13T10:48:15.484Z,7.33
2023-01-13T10:50:49.068Z,7.30
2023-01-13T10:53:26.259Z,7.17
2023-01-13T10:56:03.368Z,7.29
2023-01-13T10:58:35.954Z,7.21
2023-01-13T11:01:25.680Z,7.24
2023-01-13T11:03:59.623Z,7.34
2023-01-13T11:06:34.095Z,7.28
2023-01-13T11:09:20.928Z,7.47
2023-01-13T11:11:57.663Z,7.33
2023-01-13T11:14:43.904Z,7.50
2023-01-13T11:17:34.628Z,7.59
2023-01-13T11:20:33.614Z,7.42
2023-01-13T11:23:21.728Z,7.59
2023-01-13T11:26:33.477Z,7.86
2023-01-13T11:29:20.595Z,7.87
2023-01-13T11:32:07.488Z,8.02
2023-01-13T11:34:45.325Z,7.98
2023-01-13T11:37:27.820Z,8.14
2023-01-13T11:40:38.866Z,8.06
2023-01-13T11:43:47.076Z,7.99
2023-01-13T11:46:27.126Z,8.18
2023-01-13T11:49:00.954Z,8.07
2023-01-13T11:51:43.341Z,8.10
2023-01-13T11:54:40.295Z,7.98
2023-01-13T11:58:11.220Z,7.93
2023-01-13T12:01:15.581Z,8.21
2023-01-13T12:04:29.279Z,8.28
2023-01-13T12:07:52.978Z,8.16
2023-01-13T12:11:13.927Z,8.09
2023-01-13T12:15:03.415Z,8.24
2023-01-13T12:17:49.182Z,8.25
2023-01-13T12:20:41.959Z,8.29
2023-01-13T12:23:38.973Z,8.29
2023-01-13T12:26:18.345Z,8.28
2023-01-13T12:29:06.241Z,8.32
2023-01-13T12:31:42.047Z,8.34
2023-01-13T12:34:30.068Z,8.36
2023-01-13T12:37:16.305Z,8.29
2023-01-13T12:39:52.570Z,8.43
2023-01-13T12:42:58.801Z,8.30
2023-01-13T12:45:34.068Z,8.21
2023-01-13T12:48:06.771Z,8.27
2023-01-13T12:50:41.119Z,8.31
2023-01-13T12:53:36.402Z,8.30
2023-01-13T12:56:40.732Z,8.39
2023-01-13T12:59:19.828Z,8.37
2023-01-13T13:02:12.871Z,8.37
2023-01-13T13:04:49.985Z,8.54
2023-01-13T13:08:07.291Z,8.30
2023-01-13T13:11:06.507Z,8.22
2023-01-13T13:13:49.081Z,8.19
2023-01-13T13:16:29.340Z,8.28
2023-01-13T13:19:20.225Z,8.22
2023-01-13T13:22:14.584Z,8.26
2023-01-13T13:24:56.358Z,8.32
2023-01-13T13:27:31.980Z,8.39
2023-01-13T13:30:33.952Z,8.41
2023-01-13T13:33:39.164Z,8.44
2023-01-13T13:36:44.273Z,8.63
2023-01-13T13:40:02.729Z,8.62
2023-01-13T13:43:02.137Z,8.54
2023-01-13T13:46:13.550Z,8.56
2023-01-13T13:48:55.298Z,8.51
2023-01-13T13:51:40.190Z,8.46
2023-01-13T13:54:22.832Z,8.42
2023-01-13T13:56:55.625Z,8.45
2023-01-13T13:59:33.594Z,8.25
2023-01-13T14:02:47.276Z,8.37
2023-01-13T14:05:28.469Z,8.28
2023-01-13T14:08:14.785Z,8.34
2023-01-13T14:10:47.875Z,8.46
2023-01-13T14:13:31.741Z,8.28
2023-01-13T14:16:10.548Z,8.20
2023-01-13T14:18:47.955Z,8.23
2023-01-13T14:21:28.796Z,8.20
2023-01-13T14:24:17.572Z,8.17
2023-01-13T14:26:52.058Z,8.20
2023-01-13T14:29:25.409Z,8.21
2023-01-13T14:31:58.088Z,8.19
2023-01-13T14:34:33.291Z,8.23
2023-01-13T14:37:38.482Z,8.25
2023-01-13T14:40:32.997Z,8.25
2023-01-13T14:43:16.066Z,8.19
2023-01-13T14:45:59.809Z,8.17
2023-01-13T14:48:37.851Z,8.30
2023-01-13T14:51:20.272Z,8.22
2023-01-13T14:53:53.906Z,8.20
2023-01-13T14:56:43.952Z,8.08
2023-01-13T14:59:40.763Z,8.24
2023-01-13T15:02:25.529Z,8.22
2023-01-13T15:05:16.883Z,8.16
2023-01-13T15:07:56.582Z,8.15
2023-01-13T15:10:33.972Z,8.25
2023-01-13T15:13:07.389Z,8.17
2023-01-13T15:15:39.973Z,8.25
2023-01-13T15:18:17.154Z,8.13
2023-01-13T15:20:52.525Z,8.13
2023-01-13T15:23:25.055Z,8.14
2023-01-13T15:26:00.608Z,8.22
2023-01-13T15:28:33.166Z,8.27
2023-01-13T15:31:05.929Z,8.25
2023-01-13T15:33:38.843Z,8.22
2023-01-13T15:36:25.207Z,8.12
2023-01-13T15:38:59.634Z,8.08
2023-01-13T15:41:50.674Z,8.18
2023-01-13T15:44:41.899Z,8.16
2023-01-13T15:47:14.832Z,8.15
2023-01-13T15:49:47.495Z,8.03
2023-01-13T15:52:26.548Z,8.23
2023-01-13T15:54:59.036Z,8.27
2023-01-13T15:57:39.039Z,8.18
2023-01-13T16:00:22.418Z,8.18
2023-01-13T16:02:55.112Z,8.18
2023-01-13T16:05:27.756Z,8.24
2023-01-13T16:08:00.523Z,8.18
2023-01-13T16:10:33.047Z,8.29
2023-01-13T16:13:05.579Z,8.33
2023-01-13T16:15:46.870Z,8.30
2023-01-13T16:18:24.279Z,8.29
2023-01-13T16:20:56.853Z,8.28
2023-01-13T16:23:29.324Z,8.30
2023-01-13T16:26:14.663Z,8.30
2023-01-13T16:28:48.184Z,8.39
2023-01-13T16:31:33.568Z,8.34
2023-01-13T16:34:06.484Z,8.37
2023-01-13T16:36:39.130Z,8.49
2023-01-13T16:39:21.804Z,8.43
2023-01-13T16:41:54.302Z,8.34
2023-01-13T16:44:26.896Z,8.31
2023-01-13T16:46:59.372Z,8.34
2023-01-13T16:49:32.016Z,8.38
2023-01-13T16:52:04.653Z,8.36
2023-01-13T16:54:37.245Z,8.45
2023-01-13T16:57:13.790Z,8.29
2023-01-13T16:59:46.438Z,8.37
2023-01-13T17:02:20.908Z,8.37
2023-01-13T17:04:53.655Z,8.34
2023-01-13T17:07:26.237Z,8.37
2023-01-13T17:09:58.821Z,8.25
2023-01-13T17:12:31.446Z,8.25
2023-01-13T17:15:04.450Z,8.21
2023-01-13T17:17:37.551Z,8.12
2023-01-13T17:20:14.114Z,8.04
2023-01-13T17:22:49.764Z,7.97
2023-01-13T17:25:27.379Z,7.90
2023-01-13T17:27:59.945Z,7.92
2023-01-13T17:30:32.687Z,7.86
2023-01-13T17:33:05.563Z,7.76
2023-01-13T17:35:39.367Z,7.70
2023-01-13T17:38:11.865Z,7.60
2023-01-13T17:40:44.438Z,7.67
2023-01-13T17:43:16.896Z,7.62
2023-01-13T17:45:49.713Z,7.64
2023-01-13T17:48:22.266Z,7.63
2023-01-13T17:50:54.802Z,7.71
2023-01-13T17:53:30.102Z,7.58
2023-01-13T17:56:03.250Z,7.58
2023-01-13T17:58:37.598Z,7.57
2023-01-13T18:01:17.551Z,7.58
2023-01-13T18:03:50.434Z,7.57
2023-01-13T18:06:24.323Z,7.56
2023-01-13T18:08:59.935Z,7.59
2023-01-13T18:11:32.543Z,7.53
2023-01-13T18:14:05.133Z,7.59
2023-01-13T18:16:38.783Z,7.60
2023-01-13T18:19:30.529Z,7.74
2023-01-13T18:22:32.634Z,7.78
2023-01-13T18:25:24.764Z,7.78
2023-01-13T18:27:59.788Z,7.85
2023-01-13T18:30:32.400Z,7.84
2023-01-13T18:33:04.936Z,7.81
2023-01-13T18:35:39.618Z,7.77
2023-01-13T18:38:25.773Z,7.77
2023-01-13T18:40:58.369Z,7.86
2023-01-13T18:43:33.375Z,7.76
2023-01-13T18:46:05.895Z,7.74
2023-01-13T18:48:38.449Z,7.67
2023-01-13T18:51:10.985Z,7.78
2023-01-13T18:53:43.582Z,7.79
2023-01-13T18:56:16.154Z,7.95
2023-01-13T18:58:52.090Z,7.93
2023-01-13T19:01:27.487Z,7.62
2023-01-13T19:04:02.957Z,7.47
2023-01-13T19:06:36.495Z,7.25
2023-01-13T19:09:11.040Z,7.21
2023-01-13T19:11:46.440Z,7.09
2023-01-13T19:14:37.663Z,7.03
2023-01-13T19:17:16.175Z,6.84
2023-01-13T19:19:57.370Z,6.77
2023-01-13T19:22:35.445Z,6.65
2023-01-13T19:25:08.329Z,6.68
2023-01-13T19:27:40.945Z,6.71
2023-01-13T19:30:14.374Z,6.65
2023-01-13T19:32:46.931Z,6.62
2023-01-13T19:35:20.023Z,6.65
2023-01-13T19:37:53.927Z,6.70
2023-01-13T19:40:27.012Z,6.81
2023-01-13T19:43:18.423Z,6.82
2023-01-13T19:45:51.401Z,6.77
2023-01-13T19:48:24.089Z,6.81
2023-01-13T19:50:58.572Z,6.74
2023-01-13T19:53:32.100Z,6.83
2023-01-13T19:56:05.156Z,6.70
2023-01-13T19:58:37.807Z,6.77
2023-01-13T20:01:11.691Z,6.80
2023-01-13T20:03:45.885Z,6.78
2023-01-13T20:06:18.531Z,6.82
2023-01-13T20:08:51.033Z,6.78
2023-01-13T20:11:25.064Z,6.86
2023-01-13T20:14:01.490Z,6.94
2023-01-13T20:16:34.125Z,7.01
2023-01-13T20:19:06.749Z,7.04
2023-01-13T20:21:39.836Z,7.06
2023-01-13T20:24:17.477Z,7.07
2023-01-13T20:26:50.144Z,7.07
2023-01-13T20:29:23.235Z,7.02
2023-01-13T20:31:55.973Z,6.94
2023-01-13T20:34:28.626Z,6.89
2023-01-13T20:37:01.322Z,6.95
2023-01-13T20:39:35.909Z,6.84
2023-01-13T20:42:28.530Z,6.95
2023-01-13T20:45:01.497Z,6.97
2023-01-13T20:47:34.161Z,6.95
2023-01-13T20:50:07.427Z,7.01
2023-01-13T20:52:40.084Z,7.09
2023-01-13T20:55:13.403Z,7.23
2023-01-13T20:57:48.845Z,7.15
2023-01-13T21:00:21.956Z,7.05
2023-01-13T21:02:54.489Z,7.07
2023-01-13T21:05:28.474Z,7.09
2023-01-13T21:08:01.101Z,6.96
2023-01-13T21:10:33.757Z,6.91
2023-01-13T21:13:24.910Z,6.97
2023-01-13T21:15:57.504Z,6.94
2023-01-13T21:19:05.412Z,6.88
2023-01-13T21:21:38.134Z,7.02
2023-01-13T21:24:10.657Z,6.94
2023-01-13T21:26:43.343Z,6.89
2023-01-13T21:29:15.880Z,6.84
2023-01-13T21:31:48.821Z,6.84
2023-01-13T21:34:21.394Z,6.83
2023-01-13T21:36:53.922Z,6.89
2023-01-13T21:39:26.627Z,6.78
2023-01-13T21:42:17.539Z,6.68
2023-01-13T21:45:08.743Z,6.62
2023-01-13T21:47:50.495Z,6.67
2023-01-13T21:50:28.140Z,6.57
2023-01-13T21:53:00.732Z,6.68
2023-01-13T21:55:35.682Z,6.68
2023-01-13T21:58:14.273Z,6.68
2023-01-13T22:00:49.248Z,6.57
2023-01-13T22:03:22.188Z,6.47
2023-01-13T22:05:55.784Z,6.53
2023-01-13T22:08:28.388Z,6.41
2023-01-13T22:11:03.011Z,6.42
2023-01-13T22:13:54.657Z,6.38
2023-01-13T22:16:27.285Z,6.38
2023-01-13T22:18:59.815Z,6.50
2023-01-13T22:21:32.798Z,6.50
2023-01-13T22:24:05.823Z,6.54
2023-01-13T22:26:38.536Z,6.55
2023-01-13T22:29:11.131Z,6.68
2023-01-13T22:31:43.882Z,6.70
2023-01-13T22:34:16.489Z,6.67
2023-01-13T22:36:49.080Z,6.59
2023-01-13T22:39:21.705Z,6.63
2023-01-13T22:41:54.326Z,6.59
2023-01-13T22:44:26.994Z,6.62
2023-01-13T22:47:00.242Z,6.58
2023-01-13T22:49:32.751Z,6.45
2023-01-13T22:52:05.839Z,6.54
2023-01-13T22:54:38.368Z,6.49
2023-01-13T22:57:11.541Z,6.43
2023-01-13T22:59:44.133Z,6.37
2023-01-13T23:02:16.727Z,6.34
2023-01-13T23:04:49.327Z,6.30
2023-01-13T23:07:21.997Z,6.27
2023-01-13T23:09:54.491Z,6.24
2023-01-13T23:12:27.000Z,6.27
2023-01-13T23:14:59.595Z,6.26
2023-01-13T23:17:32.118Z,6.25
2023-01-13T23:20:05.097Z,6.23
2023-01-13T23:22:38.632Z,6.16
2023-01-13T23:25:11.632Z,6.10
2023-01-13T23:27:44.267Z,6.23
2023-01-13T23:30:17.586Z,6.20
2023-01-13T23:32:50.075Z,6.21
2023-01-13T23:35:22.615Z,6.14
2023-01-13T23:37:55.167Z,5.97
2023-01-13T23:40:27.788Z,6.13
2023-01-13T23:43:00.536Z,6.13
2023-01-13T23:45:33.099Z,5.98
2023-01-13T23:48:06.429Z,5.77
2023-01-13T23:50:39.049Z,5.77
2023-01-13T23:53:11.607Z,5.74
2023-01-13T23:55:44.102Z,5.61
2023-01-13T23:58:16.687Z,5.57
